createdAt,value
2023-01-08T00:00:12.296Z,100072.69
2023-01-08T00:02:41.643Z,100069.47
2023-01-08T00:05:08.606Z,100070.59
2023-01-08T00:07:35.352Z,100058.66
2023-01-08T00:10:02.070Z,100059.53
2023-01-08T00:12:28.427Z,100069.22
2023-01-08T00:14:54.882Z,100066.84
2023-01-08T00:17:21.277Z,100068.44
2023-01-08T00:19:47.734Z,100074.38
2023-01-08T00:22:14.131Z,100071.41
2023-01-08T00:24:40.545Z,100051.63
2023-01-08T00:27:07.207Z,100041.28
2023-01-08T00:29:34.059Z,100044.28
2023-01-08T00:32:00.997Z,100042.91
2023-01-08T00:34:27.367Z,100034.00
2023-01-08T00:36:53.778Z,100033.75
2023-01-08T00:39:20.146Z,100033.75
2023-01-08T00:41:46.825Z,100037.53
2023-01-08T00:44:13.197Z,100048.38
2023-01-08T00:46:39.603Z,100046.22
2023-01-08T00:49:06.026Z,100044.56
2023-01-08T00:51:32.737Z,100041.59
2023-01-08T00:53:59.506Z,100044.28
2023-01-08T00:56:26.089Z,100045.06
2023-01-08T00:58:52.711Z,100044.31
2023-01-08T01:01:19.193Z,100041.09
2023-01-08T01:03:45.697Z,100044.88
2023-01-08T01:06:13.220Z,100031.63
2023-01-08T01:08:39.798Z,100039.97
2023-01-08T01:11:18.305Z,100039.97
2023-01-08T01:13:44.681Z,100033.50
2023-01-08T01:16:11.172Z,100033.78
2023-01-08T01:18:37.566Z,100019.72
2023-01-08T01:21:10.716Z,100026.75
2023-01-08T01:23:37.349Z,100021.91
2023-01-08T01:26:03.799Z,100020.00
2023-01-08T01:28:30.525Z,100018.91
2023-01-08T01:30:57.452Z,100018.66
2023-01-08T01:33:23.998Z,100012.13
2023-01-08T01:35:59.365Z,100024.34
2023-01-08T01:38:25.954Z,100025.66
2023-01-08T01:40:52.356Z,100010.50
2023-01-08T01:43:43.097Z,100014.53
2023-01-08T01:46:22.152Z,100008.56
2023-01-08T01:48:52.941Z,100009.13
2023-01-08T01:51:20.405Z,99997.69
2023-01-08T01:53:46.832Z,100013.69
2023-01-08T01:56:13.403Z,100008.28
2023-01-08T01:58:39.845Z,99997.97
2023-01-08T02:01:08.527Z,100003.38
2023-01-08T02:03:38.325Z,100000.63
2023-01-08T02:06:38.092Z,99985.19
2023-01-08T02:09:09.621Z,99986.81
2023-01-08T02:11:47.084Z,99991.16
2023-01-08T02:14:30.472Z,99986.25
2023-01-08T02:17:02.953Z,99999.53
2023-01-08T02:19:42.425Z,99993.25
2023-01-08T02:22:42.101Z,99991.50
2023-01-08T02:25:20.864Z,99995.75
2023-01-08T02:27:51.178Z,99986.06
2023-01-08T02:30:18.619Z,99989.06
2023-01-08T02:32:45.135Z,99995.03
2023-01-08T02:35:11.748Z,99993.94
2023-01-08T02:37:38.832Z,99989.09
2023-01-08T02:40:14.848Z,99990.75
2023-01-08T02:42:41.219Z,99980.66
2023-01-08T02:45:13.289Z,99972.53
2023-01-08T02:47:46.250Z,99984.72
2023-01-08T02:50:31.897Z,99981.91
2023-01-08T02:53:15.938Z,99983.81
2023-01-08T02:55:47.622Z,99989.56
2023-01-08T02:58:14.426Z,99985.53
2023-01-08T03:00:44.370Z,99983.59
2023-01-08T03:03:16.964Z,99980.59
2023-01-08T03:05:48.362Z,99977.38
2023-01-08T03:08:15.432Z,99984.75
2023-01-08T03:10:45.012Z,99976.63
2023-01-08T03:13:17.729Z,99983.63
2023-01-08T03:15:49.815Z,99986.34
2023-01-08T03:18:20.916Z,99979.34
2023-01-08T03:20:49.437Z,99985.00
2023-01-08T03:23:17.799Z,99984.81
2023-01-08T03:25:47.093Z,99977.16
2023-01-08T03:28:24.115Z,99978.25
2023-01-08T03:30:53.266Z,99979.00
2023-01-08T03:33:21.673Z,99978.78
2023-01-08T03:35:53.665Z,99980.03
2023-01-08T03:38:34.340Z,99985.75
2023-01-08T03:41:08.465Z,99977.94
2023-01-08T03:43:35.904Z,99980.31
2023-01-08T03:46:08.119Z,99968.50
2023-01-08T03:48:36.331Z,99968.72
2023-01-08T03:51:02.777Z,99964.16
2023-01-08T03:53:29.411Z,99961.47
2023-01-08T03:55:57.564Z,99957.69
2023-01-08T03:58:23.953Z,99952.31
2023-01-08T04:00:50.425Z,99957.97
2023-01-08T04:03:16.849Z,99951.78
2023-01-08T04:05:43.273Z,99953.16
2023-01-08T04:08:09.721Z,99945.31
2023-01-08T04:10:36.250Z,99934.47
2023-01-08T04:13:02.704Z,99936.78
2023-01-08T04:15:29.231Z,99930.66
2023-01-08T04:17:55.702Z,99921.97
2023-01-08T04:20:22.138Z,99921.97
2023-01-08T04:22:48.564Z,99926.31
2023-01-08T04:25:15.043Z,99917.66
2023-01-08T04:27:41.444Z,99920.16
2023-01-08T04:30:08.540Z,99913.91
2023-01-08T04:32:35.499Z,99911.22
2023-01-08T04:35:02.356Z,99912.91
2023-01-08T04:37:28.732Z,99903.97
2023-01-08T04:39:55.270Z,99904.56
2023-01-08T04:42:21.699Z,99906.44
2023-01-08T04:44:48.098Z,99905.66
2023-01-08T04:47:15.034Z,99900.00
2023-01-08T04:49:41.421Z,99896.19
2023-01-08T04:52:07.864Z,99901.91
2023-01-08T04:54:34.411Z,99896.47
2023-01-08T04:57:02.077Z,99894.56
2023-01-08T04:59:28.596Z,99892.16
2023-01-08T05:01:56.776Z,99889.44
2023-01-08T05:04:23.310Z,99881.31
2023-01-08T05:06:49.685Z,99877.50
2023-01-08T05:09:16.101Z,99879.84
2023-01-08T05:11:43.162Z,99879.06
2023-01-08T05:14:09.607Z,99869.31
2023-01-08T05:16:36.282Z,99877.44
2023-01-08T05:19:02.934Z,99883.66
2023-01-08T05:21:29.333Z,99875.75
2023-01-08T05:23:55.760Z,99875.75
2023-01-08T05:26:22.157Z,99867.06
2023-01-08T05:28:48.746Z,99868.72
2023-01-08T05:31:15.506Z,99870.63
2023-01-08T05:33:42.043Z,99866.59
2023-01-08T05:36:10.542Z,99872.81
2023-01-08T05:38:37.818Z,99861.41
2023-01-08T05:41:05.421Z,99860.06
2023-01-08T05:43:32.343Z,99857.63
2023-01-08T05:46:00.287Z,99861.44
2023-01-08T05:48:28.381Z,99863.88
2023-01-08T05:50:55.173Z,99866.53
2023-01-08T05:53:21.802Z,99867.91
2023-01-08T05:55:48.338Z,99877.72
2023-01-08T05:58:18.866Z,99872.84
2023-01-08T06:00:46.034Z,99876.66
2023-01-08T06:03:12.516Z,99872.84
2023-01-08T06:05:39.014Z,99867.19
2023-01-08T06:08:07.714Z,99860.94
2023-01-08T06:10:37.439Z,99865.81
2023-01-08T06:13:07.644Z,99860.94
2023-01-08T06:15:34.479Z,99846.31
2023-01-08T06:18:04.784Z,99840.63
2023-01-08T06:20:31.479Z,99841.66
2023-01-08T06:22:58.255Z,99855.69
2023-01-08T06:25:24.919Z,99854.88
2023-01-08T06:27:54.197Z,99849.25
2023-01-08T06:30:20.710Z,99846.84
2023-01-08T06:32:47.098Z,99843.78
2023-01-08T06:35:13.519Z,99844.69
2023-01-08T06:37:39.922Z,99842.81
2023-01-08T06:40:07.149Z,99836.56
2023-01-08T06:42:33.604Z,99843.09
2023-01-08T06:45:02.573Z,99838.94
2023-01-08T06:47:28.949Z,99841.03
2023-01-08T06:49:55.341Z,99844.06
2023-01-08T06:52:21.837Z,99845.72
2023-01-08T06:54:48.210Z,99849.53
2023-01-08T06:57:14.620Z,99843.03
2023-01-08T06:59:40.984Z,99845.19
2023-01-08T07:02:13.305Z,99848.03
2023-01-08T07:04:39.953Z,99843.69
2023-01-08T07:07:06.761Z,99841.50
2023-01-08T07:09:36.258Z,99847.09
2023-01-08T07:12:05.201Z,99845.00
2023-01-08T07:14:31.751Z,99848.84
2023-01-08T07:16:58.141Z,99843.41
2023-01-08T07:19:24.572Z,99857.97
2023-01-08T07:21:50.914Z,99852.56
2023-01-08T07:24:17.483Z,99848.78
2023-01-08T07:26:43.976Z,99850.66
2023-01-08T07:29:10.353Z,99850.19
2023-01-08T07:31:36.946Z,99859.16
2023-01-08T07:34:03.571Z,99857.59
2023-01-08T07:36:30.096Z,99854.72
2023-01-08T07:38:56.492Z,99854.53
2023-01-08T07:41:22.923Z,99857.81
2023-01-08T07:43:50.212Z,99853.00
2023-01-08T07:46:16.676Z,99850.94
2023-01-08T07:48:43.130Z,99836.97
2023-01-08T07:51:09.895Z,99839.16
2023-01-08T07:53:37.282Z,99842.19
2023-01-08T07:56:06.776Z,99840.91
2023-01-08T07:58:34.543Z,99826.22
2023-01-08T08:01:03.476Z,99825.84
2023-01-08T08:03:30.139Z,99825.31
2023-01-08T08:05:56.628Z,99831.59
2023-01-08T08:08:23.023Z,99837.47
2023-01-08T08:10:49.447Z,99843.13
2023-01-08T08:13:15.885Z,99827.69
2023-01-08T08:15:42.398Z,99840.91
2023-01-08T08:18:09.303Z,99837.16
2023-01-08T08:20:36.824Z,99830.94
2023-01-08T08:23:09.522Z,99839.56
2023-01-08T08:25:36.758Z,99842.53
2023-01-08T08:28:03.817Z,99841.66
2023-01-08T08:30:32.572Z,99839.06
2023-01-08T08:33:02.692Z,99836.28
2023-01-08T08:35:30.484Z,99849.28
2023-01-08T08:37:57.503Z,99847.72
2023-01-08T08:40:24.919Z,99836.19
2023-01-08T08:43:02.557Z,99837.59
2023-01-08T08:45:29.711Z,99838.38
2023-01-08T08:47:56.397Z,99828.97
2023-01-08T08:50:23.013Z,99831.09
2023-01-08T08:52:49.426Z,99824.88
2023-01-08T08:55:17.256Z,99819.34
2023-01-08T08:57:45.343Z,99814.28
2023-01-08T09:00:13.062Z,99813.97
2023-01-08T09:02:39.705Z,99807.44
2023-01-08T09:05:06.687Z,99812.88
2023-01-08T09:07:33.485Z,99811.16
2023-01-08T09:09:59.985Z,99802.38
2023-01-08T09:12:27.146Z,99808.63
2023-01-08T09:14:54.812Z,99808.00
2023-01-08T09:17:21.604Z,99802.69
2023-01-08T09:19:48.119Z,99811.91
2023-01-08T09:22:14.514Z,99813.81
2023-01-08T09:24:40.915Z,99818.41
2023-01-08T09:27:09.058Z,99823.31
2023-01-08T09:29:36.740Z,99808.00
2023-01-08T09:32:06.971Z,99813.59
2023-01-08T09:34:34.310Z,99821.84
2023-01-08T09:37:00.752Z,99815.28
2023-01-08T09:39:27.584Z,99809.47
2023-01-08T09:41:56.361Z,99817.50
2023-01-08T09:44:27.938Z,99808.56
2023-01-08T09:46:56.040Z,99807.72
2023-01-08T09:49:33.761Z,99810.41
2023-01-08T09:52:04.115Z,99807.09
2023-01-08T09:54:31.243Z,99801.81
2023-01-08T09:56:59.761Z,99804.59
2023-01-08T09:59:26.700Z,99803.69
2023-01-08T10:01:54.042Z,99807.19
2023-01-08T10:04:23.799Z,99804.19
2023-01-08T10:06:56.952Z,99802.50
2023-01-08T10:09:29.364Z,99811.31
2023-01-08T10:12:00.250Z,99809.88
2023-01-08T10:14:31.870Z,99797.28
2023-01-08T10:17:02.750Z,99808.69
2023-01-08T10:19:29.194Z,99801.34
2023-01-08T10:21:57.325Z,99800.91
2023-01-08T10:24:41.297Z,99797.28
2023-01-08T10:27:15.207Z,99810.47
2023-01-08T10:29:41.798Z,99802.97
2023-01-08T10:32:16.281Z,99818.31
2023-01-08T10:34:58.267Z,99799.03
2023-01-08T10:37:29.414Z,99803.09
2023-01-08T10:40:07.956Z,99813.47
2023-01-08T10:42:36.691Z,99792.56
2023-01-08T10:45:07.852Z,99796.31
2023-01-08T10:47:36.391Z,99816.84
2023-01-08T10:50:05.563Z,99809.00
2023-01-08T10:52:36.337Z,99806.53
2023-01-08T10:55:36.162Z,99806.25
2023-01-08T10:58:08.749Z,99796.53
2023-01-08T11:00:37.786Z,99779.53
2023-01-08T11:03:06.925Z,99792.50
2023-01-08T11:05:36.488Z,99787.59
2023-01-08T11:08:15.935Z,99779.72
2023-01-08T11:10:42.442Z,99780.22
2023-01-08T11:13:18.525Z,99774.47
2023-01-08T11:15:45.053Z,99772.19
2023-01-08T11:18:20.485Z,99761.31
2023-01-08T11:20:48.133Z,99765.13
2023-01-08T11:23:24.722Z,99763.97
2023-01-08T11:26:04.001Z,99757.78
2023-01-08T11:28:47.654Z,99757.19
2023-01-08T11:31:23.182Z,99758.22
2023-01-08T11:33:56.858Z,99755.22
2023-01-08T11:36:33.605Z,99748.34
2023-01-08T11:39:01.543Z,99757.94
2023-01-08T11:41:34.666Z,99751.72
2023-01-08T11:44:38.500Z,99744.91
2023-01-08T11:47:21.869Z,99733.50
2023-01-08T11:50:00.551Z,99731.78
2023-01-08T11:52:59.232Z,99730.72
2023-01-08T11:55:45.237Z,99733.44
2023-01-08T11:58:49.230Z,99731.56
2023-01-08T12:01:34.858Z,99726.56
2023-01-08T12:04:26.231Z,99716.13
2023-01-08T12:07:24.094Z,99723.56
2023-01-08T12:09:59.520Z,99723.69
2023-01-08T12:12:48.500Z,99716.78
2023-01-08T12:15:39.507Z,99702.72
2023-01-08T12:18:36.985Z,99710.84
2023-01-08T12:21:27.561Z,99707.25
2023-01-08T12:24:22.719Z,99701.97
2023-01-08T12:27:07.972Z,99706.50
2023-01-08T12:29:46.852Z,99695.75
2023-01-08T12:32:22.243Z,99691.31
2023-01-08T12:35:10.464Z,99690.09
2023-01-08T12:37:47.707Z,99683.94
2023-01-08T12:40:20.073Z,99683.63
2023-01-08T12:42:47.379Z,99692.66
2023-01-08T12:45:28.901Z,99676.81
2023-01-08T12:48:14.623Z,99679.25
2023-01-08T12:50:47.976Z,99680.38
2023-01-08T12:53:54.503Z,99669.75
2023-01-08T12:56:33.379Z,99672.53
2023-01-08T12:59:32.072Z,99656.38
2023-01-08T13:02:07.220Z,99654.88
2023-01-08T13:04:44.682Z,99656.69
2023-01-08T13:07:18.673Z,99650.69
2023-01-08T13:09:45.564Z,99650.69
2023-01-08T13:12:15.155Z,99646.03
2023-01-08T13:14:50.411Z,99641.53
2023-01-08T13:17:21.193Z,99636.81
2023-01-08T13:19:53.537Z,99628.75
2023-01-08T13:22:29.835Z,99619.22
2023-01-08T13:25:13.070Z,99620.31
2023-01-08T13:27:40.077Z,99617.31
2023-01-08T13:30:35.909Z,99618.06
2023-01-08T13:33:02.852Z,99619.25
2023-01-08T13:35:31.519Z,99619.66
2023-01-08T13:38:09.926Z,99610.66
2023-01-08T13:40:43.608Z,99618.09
2023-01-08T13:43:35.655Z,99612.50
2023-01-08T13:46:02.112Z,99595.28
2023-01-08T13:48:37.234Z,99599.16
2023-01-08T13:51:04.386Z,99590.81
2023-01-08T13:53:32.176Z,99589.53
2023-01-08T13:56:06.884Z,99590.03
2023-01-08T13:58:42.034Z,99590.41
2023-01-08T14:01:10.314Z,99589.63
2023-01-08T14:03:44.120Z,99580.25
2023-01-08T14:06:13.180Z,99584.41
2023-01-08T14:08:56.507Z,99582.06
2023-01-08T14:11:27.763Z,99572.09
2023-01-08T14:13:55.743Z,99569.97
2023-01-08T14:16:22.498Z,99577.03
2023-01-08T14:18:50.323Z,99583.75
2023-01-08T14:21:21.465Z,99580.06
2023-01-08T14:23:50.777Z,99575.00
2023-01-08T14:26:27.410Z,99577.44
2023-01-08T14:28:53.983Z,99572.88
2023-01-08T14:31:26.427Z,99571.78
2023-01-08T14:33:58.493Z,99563.50
2023-01-08T14:36:26.265Z,99565.31
2023-01-08T14:38:52.776Z,99555.66
2023-01-08T14:41:53.098Z,99562.75
2023-01-08T14:44:36.309Z,99562.06
2023-01-08T14:47:06.014Z,99556.00
2023-01-08T14:49:40.664Z,99562.81
2023-01-08T14:52:12.035Z,99559.47
2023-01-08T14:54:39.528Z,99556.00
2023-01-08T14:57:06.170Z,99552.78
2023-01-08T14:59:37.697Z,99554.13
2023-01-08T15:02:08.354Z,99551.41
2023-01-08T15:04:34.948Z,99542.53
2023-01-08T15:07:18.919Z,99549.28
2023-01-08T15:09:55.709Z,99543.03
2023-01-08T15:12:27.295Z,99534.75
2023-01-08T15:14:55.152Z,99528.97
2023-01-08T15:17:25.373Z,99518.22
2023-01-08T15:19:55.865Z,99527.00
2023-01-08T15:22:27.892Z,99520.38
2023-01-08T15:25:03.038Z,99517.13
2023-01-08T15:27:31.519Z,99519.13
2023-01-08T15:30:03.448Z,99518.69
2023-01-08T15:32:34.656Z,99513.78
2023-01-08T15:35:01.984Z,99510.09
2023-01-08T15:37:30.406Z,99511.50
2023-01-08T15:39:56.936Z,99503.81
2023-01-08T15:42:47.274Z,99506.06
2023-01-08T15:45:22.561Z,99503.97
2023-01-08T15:47:48.985Z,99509.09
2023-01-08T15:50:15.521Z,99499.38
2023-01-08T15:52:43.439Z,99493.81
2023-01-08T15:55:19.263Z,99497.91
2023-01-08T15:57:46.083Z,99497.41
2023-01-08T16:00:16.929Z,99487.94
2023-01-08T16:02:46.869Z,99485.50
2023-01-08T16:05:15.189Z,99485.50
2023-01-08T16:07:41.600Z,99482.59
2023-01-08T16:10:09.069Z,99485.28
2023-01-08T16:12:36.758Z,99485.59
2023-01-08T16:15:04.248Z,99490.78
2023-01-08T16:17:31.623Z,99492.69
2023-01-08T16:19:58.226Z,99504.53
2023-01-08T16:22:24.622Z,99509.56
2023-01-08T16:24:51.026Z,99527.94
2023-01-08T16:27:17.436Z,99538.25
2023-01-08T16:29:43.851Z,99530.13
2023-01-08T16:32:10.272Z,99534.03
2023-01-08T16:34:36.951Z,99534.06
2023-01-08T16:37:03.733Z,99529.94
2023-01-08T16:39:32.231Z,99522.75
2023-01-08T16:41:58.817Z,99520.75
2023-01-08T16:44:32.228Z,99531.47
2023-01-08T16:47:01.934Z,99525.06
2023-01-08T16:49:29.238Z,99525.28
2023-01-08T16:51:55.784Z,99514.63
2023-01-08T16:54:22.663Z,99521.69
2023-01-08T16:56:49.063Z,99520.66
2023-01-08T16:59:23.217Z,99520.56
2023-01-08T17:01:51.447Z,99507.66
2023-01-08T17:04:17.994Z,99510.88
2023-01-08T17:06:44.591Z,99513.53
2023-01-08T17:09:11.883Z,99518.75
2023-01-08T17:11:38.808Z,99508.31
2023-01-08T17:14:05.499Z,99506.41
2023-01-08T17:16:32.013Z,99504.72
2023-01-08T17:18:58.427Z,99507.16
2023-01-08T17:21:24.853Z,99499.91
2023-01-08T17:23:51.239Z,99495.59
2023-01-08T17:26:17.872Z,99496.06
2023-01-08T17:28:46.445Z,99502.34
2023-01-08T17:31:15.878Z,99494.00
2023-01-08T17:33:44.162Z,99491.88
2023-01-08T17:36:15.945Z,99490.03
2023-01-08T17:38:42.951Z,99490.88
2023-01-08T17:41:09.792Z,99485.50
2023-01-08T17:43:38.044Z,99498.78
2023-01-08T17:46:08.719Z,99500.13
2023-01-08T17:48:35.700Z,99491.00
2023-01-08T17:51:07.947Z,99491.28
2023-01-08T17:53:35.838Z,99492.34
2023-01-08T17:56:05.696Z,99505.34
2023-01-08T17:58:32.165Z,99482.09
2023-01-08T18:00:58.634Z,99485.66
2023-01-08T18:03:25.820Z,99487.53
2023-01-08T18:05:52.228Z,99482.66
2023-01-08T18:08:18.700Z,99478.63
2023-01-08T18:10:45.815Z,99471.66
2023-01-08T18:13:12.227Z,99476.25
2023-01-08T18:15:38.982Z,99472.19
2023-01-08T18:18:05.544Z,99475.47
2023-01-08T18:20:32.215Z,99467.06
2023-01-08T18:22:58.666Z,99461.44
2023-01-08T18:25:25.841Z,99469.53
2023-01-08T18:27:52.250Z,99455.78
2023-01-08T18:30:19.170Z,99454.75
2023-01-08T18:32:45.571Z,99450.16
2023-01-08T18:35:12.789Z,99449.34
2023-01-08T18:37:39.213Z,99455.81
2023-01-08T18:40:06.283Z,99448.28
2023-01-08T18:42:33.333Z,99451.50
2023-01-08T18:45:00.455Z,99451.50
2023-01-08T18:47:28.759Z,99449.34
2023-01-08T18:49:58.460Z,99456.63
2023-01-08T18:52:25.326Z,99448.25
2023-01-08T18:54:53.514Z,99442.88
2023-01-08T18:57:20.066Z,99441.84
2023-01-08T18:59:48.564Z,99443.41
2023-01-08T19:02:34.366Z,99437.50
2023-01-08T19:05:01.076Z,99435.63
2023-01-08T19:07:27.512Z,99438.06
2023-01-08T19:09:54.069Z,99419.72
2023-01-08T19:12:20.463Z,99428.88
2023-01-08T19:14:47.948Z,99422.97
2023-01-08T19:17:14.369Z,99424.28
2023-01-08T19:19:40.754Z,99425.44
2023-01-08T19:22:07.187Z,99428.13
2023-01-08T19:24:36.113Z,99416.75
2023-01-08T19:27:03.239Z,99418.38
2023-01-08T19:29:30.371Z,99412.13
2023-01-08T19:31:56.876Z,99412.09
2023-01-08T19:34:23.379Z,99412.91
2023-01-08T19:36:49.837Z,99405.91
2023-01-08T19:39:16.223Z,99407.72
2023-01-08T19:42:02.552Z,99404.44
2023-01-08T19:44:28.977Z,99401.69
2023-01-08T19:46:55.877Z,99399.31
2023-01-08T19:49:23.808Z,99390.41
2023-01-08T19:51:50.963Z,99397.44
2023-01-08T19:54:18.903Z,99396.38
2023-01-08T19:56:45.364Z,99390.97
2023-01-08T19:59:11.913Z,99388.56
2023-01-08T20:01:39.088Z,99389.91
2023-01-08T20:04:06.125Z,99381.47
2023-01-08T20:06:32.640Z,99381.44
2023-01-08T20:09:01.047Z,99373.59
2023-01-08T20:11:28.444Z,99377.94
2023-01-08T20:13:55.637Z,99380.09
2023-01-08T20:16:23.982Z,99374.69
2023-01-08T20:18:50.388Z,99376.34
2023-01-08T20:21:21.912Z,99371.19
2023-01-08T20:23:49.149Z,99366.28
2023-01-08T20:26:18.484Z,99363.63
2023-01-08T20:28:46.187Z,99352.84
2023-01-08T20:31:18.326Z,99357.72
2023-01-08T20:33:45.472Z,99353.16
2023-01-08T20:36:14.823Z,99348.53
2023-01-08T20:38:43.352Z,99354.22
2023-01-08T20:41:11.919Z,99354.50
2023-01-08T20:43:39.451Z,99332.34
2023-01-08T20:46:06.992Z,99339.34
2023-01-08T20:48:37.086Z,99342.59
2023-01-08T20:51:12.269Z,99336.81
2023-01-08T20:53:39.660Z,99331.69
2023-01-08T20:56:11.875Z,99333.22
2023-01-08T20:58:40.980Z,99326.00
2023-01-08T21:01:18.432Z,99326.59
2023-01-08T21:03:45.944Z,99323.66
2023-01-08T21:06:18.602Z,99320.09
2023-01-08T21:08:47.332Z,99320.94
2023-01-08T21:11:14.404Z,99315.81
2023-01-08T21:13:41.547Z,99304.44
2023-01-08T21:16:13.028Z,99307.72
2023-01-08T21:18:43.807Z,99305.91
2023-01-08T21:21:11.637Z,99308.53
2023-01-08T21:23:38.087Z,99304.78
2023-01-08T21:26:09.781Z,99299.09
2023-01-08T21:28:40.778Z,99298.81
2023-01-08T21:31:13.448Z,99295.56
2023-01-08T21:33:40.715Z,99292.09
2023-01-08T21:36:10.162Z,99286.72
2023-01-08T21:38:37.845Z,99287.00
2023-01-08T21:41:07.662Z,99277.53
2023-01-08T21:43:53.169Z,99274.91
2023-01-08T21:46:23.350Z,99273.28
2023-01-08T21:48:51.937Z,99274.94
2023-01-08T21:51:37.746Z,99268.19
2023-01-08T21:54:04.648Z,99266.84
2023-01-08T21:56:31.319Z,99262.00
2023-01-08T21:58:57.830Z,99267.16
2023-01-08T22:01:24.360Z,99260.16
2023-01-08T22:03:50.818Z,99247.72
2023-01-08T22:06:17.245Z,99249.31
2023-01-08T22:08:45.143Z,99239.56
2023-01-08T22:11:11.559Z,99243.88
2023-01-08T22:13:39.155Z,99232.25
2023-01-08T22:16:10.587Z,99224.66
2023-01-08T22:18:37.900Z,99224.91
2023-01-08T22:21:07.513Z,99217.28
2023-01-08T22:23:35.248Z,99223.25
2023-01-08T22:26:06.338Z,99217.00
2023-01-08T22:28:33.567Z,99217.06
2023-01-08T22:31:05.155Z,99215.38
2023-01-08T22:33:31.821Z,99205.47
2023-01-08T22:35:58.325Z,99195.31
2023-01-08T22:38:24.741Z,99188.81
2023-01-08T22:40:51.146Z,99186.97
2023-01-08T22:43:17.608Z,99185.59
2023-01-08T22:45:44.075Z,99186.41
2023-01-08T22:48:10.544Z,99173.41
2023-01-08T22:50:37.043Z,99180.38
2023-01-08T22:53:03.652Z,99171.47
2023-01-08T22:55:30.181Z,99173.34
2023-01-08T22:57:56.571Z,99168.66
2023-01-08T23:00:23.009Z,99163.25
2023-01-08T23:02:49.436Z,99163.53
2023-01-08T23:05:15.868Z,99161.53
2023-01-08T23:07:42.281Z,99155.81
2023-01-08T23:10:09.967Z,99162.34
2023-01-08T23:12:36.506Z,99161.00
2023-01-08T23:15:07.355Z,99161.06
2023-01-08T23:17:44.623Z,99151.53
2023-01-08T23:20:19.616Z,99140.44
2023-01-08T23:22:47.116Z,99139.56
2023-01-08T23:25:13.673Z,99134.97
2023-01-08T23:27:40.140Z,99132.50
2023-01-08T23:30:06.938Z,99127.75
2023-01-08T23:32:33.553Z,99133.84
2023-01-08T23:34:59.962Z,99121.63
2023-01-08T23:37:26.355Z,99121.19
2023-01-08T23:39:52.732Z,99116.28
2023-01-08T23:42:19.132Z,99119.88
2023-01-08T23:44:45.512Z,99122.09
2023-01-08T23:47:11.914Z,99118.28
2023-01-08T23:49:38.449Z,99116.09
2023-01-08T23:52:04.918Z,99101.97
2023-01-08T23:54:31.434Z,99109.28
2023-01-08T23:56:57.917Z,99097.47
2023-01-08T23:59:24.381Z,99107.91
